Time;durP1;ratioP1;P1;durP2;ratioP2;P2;SDS_P1;SDS_P2;PMS_P1;PMS_P2;Temp;Humidity;BMP_temperature;BMP_pressure;BME280_temperature;BME280_humidity;BME280_pressure;Samples;Min_cycle;Max_cycle;Signal;HPM_P1;HPM_P2
2022/10/10 00:00:36;;;;;;;10.45;3.80;;;8.10;1.00;;;;;;5042465;28;20617;-82
2022/10/10 00:03:06;;;;;;;9.88;3.78;;;8.10;1.00;;;;;;5044261;28;20259;-83
2022/10/10 00:05:34;;;;;;;9.30;3.65;;;8.00;1.00;;;;;;5042841;28;20248;-82
2022/10/10 00:08:04;;;;;;;10.20;3.17;;;8.00;1.00;;;;;;5046258;28;20244;-83
2022/10/10 00:10:31;;;;;;;9.05;3.25;;;8.00;1.00;;;;;;5043564;28;20355;-79
2022/10/10 00:12:58;;;;;;;8.57;3.80;;;7.90;1.00;;;;;;5046450;28;20237;-83
2022/10/10 00:15:25;;;;;;;9.15;3.53;;;7.90;1.00;;;;;;5045050;28;20332;-83
2022/10/10 00:17:54;;;;;;;9.65;3.75;;;7.90;1.00;;;;;;5044712;28;20240;-81
2022/10/10 00:20:21;;;;;;;8.50;3.05;;;7.90;1.00;;;;;;5048657;28;20267;-83
2022/10/10 00:22:48;;;;;;;19.65;4.10;;;7.90;1.00;;;;;;5045163;28;20241;-84
2022/10/10 00:25:16;;;;;;;10.05;3.35;;;7.90;1.00;;;;;;5036874;28;20237;-84
2022/10/10 00:27:43;;;;;;;10.75;3.53;;;7.90;1.00;;;;;;5048966;28;20421;-85
2022/10/10 00:30:13;;;;;;;12.45;3.72;;;7.80;1.00;;;;;;5048010;28;20301;-83
2022/10/10 00:32:39;;;;;;;10.60;3.63;;;7.90;1.00;;;;;;5051906;28;20721;-82
2022/10/10 00:35:07;;;;;;;9.52;3.42;;;7.90;1.00;;;;;;5050561;28;20233;-83
2022/10/10 00:37:34;;;;;;;10.32;4.20;;;7.80;1.00;;;;;;5043198;28;21189;-81
2022/10/10 00:40:01;;;;;;;10.32;4.05;;;7.80;1.00;;;;;;5045203;28;20234;-82
2022/10/10 00:42:29;;;;;;;10.63;4.00;;;7.70;1.00;;;;;;5046911;28;20229;-82
2022/10/10 00:45:20;;;;;;;8.60;3.22;;;7.70;1.00;;;;;;5046682;28;20234;-83
2022/10/10 00:47:49;;;;;;;12.70;4.57;;;7.70;1.00;;;;;;5043952;28;20239;-83
2022/10/10 00:50:17;;;;;;;10.18;3.85;;;7.70;1.00;;;;;;5044057;28;20238;-83
2022/10/10 00:52:44;;;;;;;8.88;3.90;;;7.70;1.00;;;;;;5043574;28;20253;-82
2022/10/10 00:55:12;;;;;;;9.70;3.80;;;7.60;1.00;;;;;;5047264;28;21074;-82
2022/10/10 00:57:40;;;;;;;8.75;3.78;;;7.60;1.00;;;;;;5043657;28;21050;-85
2022/10/10 01:00:08;;;;;;;12.07;4.20;;;7.60;1.00;;;;;;5041680;28;20248;-83
2022/10/10 01:02:35;;;;;;;11.27;3.85;;;7.60;1.00;;;;;;5041905;28;20237;-82
2022/10/10 01:05:02;;;;;;;9.45;3.28;;;7.60;1.00;;;;;;5042988;28;20241;-82
2022/10/10 01:07:31;;;;;;;10.57;3.83;;;7.70;1.00;;;;;;5041762;28;20227;-82
2022/10/10 01:10:01;;;;;;;18.00;5.00;;;7.60;1.00;;;;;;5039416;28;20639;-82
2022/10/10 01:12:37;;;;;;;9.15;3.92;;;7.60;1.00;;;;;;5043405;28;20264;-82
2022/10/10 01:15:15;;;;;;;11.45;4.75;;;7.60;1.00;;;;;;5040650;28;20243;-81
2022/10/10 01:17:47;;;;;;;11.40;4.90;;;7.60;1.00;;;;;;5042712;28;20268;-83
2022/10/10 01:20:43;;;;;;;11.73;5.45;;;7.60;1.00;;;;;;5041957;28;20229;-82
2022/10/10 01:23:37;;;;;;;11.13;4.30;;;7.60;1.00;;;;;;5043782;28;20237;-82
2022/10/10 01:26:22;;;;;;;12.95;4.70;;;7.70;1.00;;;;;;5020803;28;20272;-83
2022/10/10 01:28:58;;;;;;;11.50;4.20;;;7.60;1.00;;;;;;5042647;28;20237;-84
2022/10/10 01:31:29;;;;;;;9.30;3.80;;;7.60;1.00;;;;;;5041873;28;20233;-82
2022/10/10 01:34:06;;;;;;;11.70;4.65;;;7.60;1.00;;;;;;5041669;28;20617;-81
2022/10/10 01:36:37;;;;;;;12.30;4.30;;;7.60;1.00;;;;;;5043033;28;20248;-81
2022/10/10 01:39:13;;;;;;;10.40;3.97;;;7.60;1.00;;;;;;5047151;28;20233;-83
2022/10/10 01:41:47;;;;;;;12.13;3.75;;;7.60;1.00;;;;;;5042953;28;20588;-82
2022/10/10 01:44:15;;;;;;;10.77;4.22;;;7.50;1.00;;;;;;5044398;28;20241;-84
2022/10/10 01:46:42;;;;;;;9.30;3.58;;;7.60;1.00;;;;;;5035301;28;20242;-83
2022/10/10 01:49:13;;;;;;;9.40;4.07;;;7.50;1.00;;;;;;5043082;28;20588;-78
2022/10/10 01:51:55;;;;;;;9.93;4.10;;;7.50;1.00;;;;;;5038515;28;20283;-78
2022/10/10 01:54:33;;;;;;;12.73;4.47;;;7.50;1.00;;;;;;5039992;28;20822;-77
2022/10/10 01:57:15;;;;;;;11.70;4.03;;;7.50;1.00;;;;;;5036794;28;20276;-78
2022/10/10 01:59:56;;;;;;;8.93;3.58;;;7.40;1.00;;;;;;5036169;28;20233;-80
2022/10/10 02:02:28;;;;;;;9.13;3.53;;;7.40;1.00;;;;;;5039207;28;20923;-79
2022/10/10 02:05:00;;;;;;;9.35;3.53;;;7.40;1.00;;;;;;5039792;28;20328;-79
2022/10/10 02:07:32;;;;;;;11.60;4.30;;;7.40;1.00;;;;;;5035492;28;20237;-78
2022/10/10 02:10:02;;;;;;;10.57;3.80;;;7.40;1.00;;;;;;5034367;28;20241;-80
2022/10/10 02:12:34;;;;;;;12.43;4.50;;;7.30;1.00;;;;;;5037573;28;21033;-78
2022/10/10 02:15:09;;;;;;;10.48;3.88;;;7.30;1.00;;;;;;5038640;28;20225;-78
2022/10/10 02:17:39;;;;;;;10.20;4.30;;;7.30;1.00;;;;;;5038904;28;20248;-78
2022/10/10 02:20:12;;;;;;;10.77;3.83;;;7.30;1.00;;;;;;5000542;28;20242;-79
2022/10/10 02:22:43;;;;;;;12.20;4.35;;;7.20;1.00;;;;;;5036743;28;20924;-78
2022/10/10 02:25:16;;;;;;;11.35;4.07;;;7.20;1.00;;;;;;5039594;28;20247;-79
2022/10/10 02:27:48;;;;;;;11.50;4.25;;;7.20;1.00;;;;;;5039400;28;20246;-78
2022/10/10 02:30:19;;;;;;;13.15;4.40;;;7.20;1.00;;;;;;5038582;28;20240;-82
2022/10/10 02:32:49;;;;;;;11.15;4.55;;;7.20;1.00;;;;;;5041245;28;20233;-78
2022/10/10 02:35:20;;;;;;;10.32;4.72;;;7.20;1.00;;;;;;5038879;28;20247;-78
2022/10/10 02:37:48;;;;;;;9.40;4.03;;;7.20;1.00;;;;;;5039544;28;20241;-78
2022/10/10 02:40:20;;;;;;;13.68;4.57;;;7.20;1.00;;;;;;5039408;28;20243;-78
2022/10/10 02:42:48;;;;;;;12.07;7.28;;;7.10;1.00;;;;;;5039482;28;20237;-78
2022/10/10 02:45:16;;;;;;;9.85;4.35;;;7.10;1.00;;;;;;5037542;28;20268;-77
2022/10/10 02:47:44;;;;;;;12.35;4.38;;;7.10;1.00;;;;;;5036272;28;20251;-78
2022/10/10 02:50:12;;;;;;;10.25;4.57;;;7.10;1.00;;;;;;5041472;28;20259;-78
2022/10/10 02:52:44;;;;;;;11.40;4.57;;;7.10;1.00;;;;;;5040777;28;20239;-79
2022/10/10 02:55:11;;;;;;;16.58;5.40;;;7.00;1.00;;;;;;5040380;28;21033;-78
2022/10/10 02:57:45;;;;;;;13.32;4.28;;;7.00;1.00;;;;;;5032906;28;20252;-84
2022/10/10 03:00:16;;;;;;;11.18;4.20;;;7.00;1.00;;;;;;5035831;28;20225;-81
2022/10/10 03:02:48;;;;;;;13.20;4.35;;;7.00;1.00;;;;;;5035633;28;20236;-77
2022/10/10 03:05:15;;;;;;;12.30;4.80;;;6.90;1.00;;;;;;5040522;28;20238;-83
2022/10/10 03:07:43;;;;;;;12.90;5.15;;;6.90;1.00;;;;;;5053265;28;20237;-82
2022/10/10 03:10:12;;;;;;;10.65;4.15;;;6.90;1.00;;;;;;5041073;28;20233;-83
2022/10/10 03:12:39;;;;;;;12.95;5.28;;;6.90;1.00;;;;;;5012823;28;20372;-84
2022/10/10 03:15:14;;;;;;;10.45;4.30;;;6.90;1.00;;;;;;5035591;28;20819;-84
2022/10/10 03:17:47;;;;;;;12.73;5.18;;;6.90;1.00;;;;;;5059428;28;20233;-78
2022/10/10 03:20:23;;;;;;;10.13;4.43;;;6.90;1.00;;;;;;5046798;28;20229;-78
2022/10/10 03:22:55;;;;;;;13.75;4.63;;;6.90;1.00;;;;;;5034336;28;20301;-79
2022/10/10 03:25:25;;;;;;;10.48;4.35;;;6.90;1.00;;;;;;5020294;28;21028;-79
2022/10/10 03:27:51;;;;;;;12.95;5.22;;;6.80;1.00;;;;;;5042590;28;20963;-78
2022/10/10 03:30:18;;;;;;;17.20;6.18;;;6.80;1.00;;;;;;5043929;28;20344;-80
2022/10/10 03:32:47;;;;;;;13.43;5.75;;;6.80;1.00;;;;;;5041988;28;20237;-77
2022/10/10 03:35:13;;;;;;;12.55;5.70;;;6.70;1.00;;;;;;5043486;28;20287;-80
2022/10/10 03:37:42;;;;;;;14.80;5.80;;;6.70;1.00;;;;;;5046773;28;20601;-79
2022/10/10 03:40:14;;;;;;;11.50;6.20;;;6.70;1.00;;;;;;5049088;28;20237;-80
2022/10/10 03:42:41;;;;;;;11.50;4.82;;;6.70;1.00;;;;;;5033456;28;20241;-78
2022/10/10 03:45:09;;;;;;;13.30;5.57;;;6.70;1.00;;;;;;5046168;28;20817;-78
2022/10/10 03:47:35;;;;;;;44.40;30.75;;;6.60;1.00;;;;;;5042893;28;20407;-78
2022/10/10 03:50:08;;;;;;;14.20;5.80;;;6.60;1.00;;;;;;5044703;28;20324;-78
2022/10/10 03:52:34;;;;;;;16.15;5.20;;;6.60;1.00;;;;;;5042767;28;20264;-78
2022/10/10 03:55:01;;;;;;;14.38;5.30;;;6.70;1.00;;;;;;5047450;28;20233;-77
2022/10/10 03:57:28;;;;;;;13.52;5.55;;;6.60;1.00;;;;;;5042057;28;20304;-78
2022/10/10 03:59:55;;;;;;;10.90;5.30;;;6.60;1.00;;;;;;5043506;28;20237;-78
2022/10/10 04:02:22;;;;;;;17.58;5.53;;;6.60;1.00;;;;;;5041052;28;20232;-82
2022/10/10 04:04:49;;;;;;;13.90;5.47;;;6.50;1.00;;;;;;5041568;28;20253;-78
2022/10/10 04:07:17;;;;;;;12.07;5.45;;;6.60;1.00;;;;;;5043344;28;20999;-79
2022/10/10 04:09:44;;;;;;;15.13;5.68;;;6.60;1.00;;;;;;5047144;28;21157;-79
2022/10/10 04:12:15;;;;;;;12.02;5.40;;;6.50;1.00;;;;;;5044582;28;20728;-79
2022/10/10 04:14:42;;;;;;;13.57;5.28;;;6.50;1.00;;;;;;5042325;28;20241;-78
2022/10/10 04:17:11;;;;;;;11.35;4.75;;;6.50;1.00;;;;;;5034103;28;21108;-80
2022/10/10 04:19:46;;;;;;;14.65;6.20;;;6.50;1.00;;;;;;5026456;28;21031;-78
2022/10/10 04:22:13;;;;;;;13.93;5.85;;;6.50;1.00;;;;;;5031651;28;20275;-80
2022/10/10 04:24:42;;;;;;;14.20;5.60;;;6.50;1.00;;;;;;5025805;28;20283;-78
2022/10/10 04:27:09;;;;;;;13.30;5.70;;;6.50;1.00;;;;;;5041625;28;20846;-79
2022/10/10 04:29:36;;;;;;;13.15;5.53;;;6.50;1.00;;;;;;5040404;28;20384;-80
2022/10/10 04:32:04;;;;;;;15.32;6.20;;;6.60;1.00;;;;;;5042423;28;20244;-81
2022/10/10 04:34:32;;;;;;;15.85;7.53;;;6.60;1.00;;;;;;5042538;28;20241;-80
2022/10/10 04:36:58;;;;;;;14.20;6.75;;;6.70;1.00;;;;;;5043357;28;20282;-79
2022/10/10 04:39:25;;;;;;;11.13;5.20;;;6.70;1.00;;;;;;5042191;28;20988;-79
2022/10/10 04:41:55;;;;;;;10.80;4.72;;;6.70;1.00;;;;;;5044926;28;20221;-79
2022/10/10 04:44:22;;;;;;;17.13;6.40;;;6.70;1.00;;;;;;5041509;28;20242;-80
2022/10/10 04:46:49;;;;;;;12.10;5.65;;;6.80;1.00;;;;;;5039709;28;20404;-77
2022/10/10 04:49:16;;;;;;;13.68;5.95;;;6.80;1.00;;;;;;5035699;28;20966;-78
2022/10/10 04:51:43;;;;;;;15.50;5.45;;;6.80;1.00;;;;;;5046244;28;20331;-78
2022/10/10 04:54:13;;;;;;;10.65;4.95;;;6.80;1.00;;;;;;5043762;28;20280;-78
2022/10/10 04:56:46;;;;;;;14.00;6.57;;;6.80;1.00;;;;;;5028385;28;20241;-78
2022/10/10 04:59:14;;;;;;;12.10;5.55;;;6.80;1.00;;;;;;5039402;28;20320;-78
2022/10/10 05:01:45;;;;;;;12.05;5.28;;;6.80;1.00;;;;;;5033701;28;20243;-78
2022/10/10 05:04:13;;;;;;;13.77;7.07;;;6.80;1.00;;;;;;5034289;28;20751;-79
2022/10/10 05:06:41;;;;;;;12.10;4.97;;;6.70;1.00;;;;;;5041549;28;20237;-80
2022/10/10 05:09:15;;;;;;;12.10;5.80;;;6.70;1.00;;;;;;5046164;28;20239;-79
2022/10/10 05:11:44;;;;;;;13.65;6.00;;;6.70;1.00;;;;;;5045096;28;20982;-78
2022/10/10 05:14:11;;;;;;;16.55;8.15;;;6.70;1.00;;;;;;5039909;28;20230;-79
2022/10/10 05:16:39;;;;;;;14.07;5.90;;;6.70;1.00;;;;;;5032059;28;20301;-78
2022/10/10 05:19:09;;;;;;;13.32;5.68;;;6.60;1.00;;;;;;5043495;28;20256;-79
2022/10/10 05:21:37;;;;;;;13.63;6.13;;;6.60;1.00;;;;;;5036077;28;20333;-78
2022/10/10 05:24:04;;;;;;;11.35;5.50;;;6.60;1.00;;;;;;5042407;28;20233;-78
2022/10/10 05:26:32;;;;;;;14.70;5.25;;;6.50;1.00;;;;;;5028438;28;20234;-81
2022/10/10 05:29:00;;;;;;;11.40;6.10;;;6.60;1.00;;;;;;5042586;28;20625;-79
2022/10/10 05:31:27;;;;;;;13.20;5.80;;;6.60;1.00;;;;;;5044245;28;20295;-79
2022/10/10 05:33:59;;;;;;;12.70;6.03;;;6.60;1.00;;;;;;5028037;28;20327;-82
2022/10/10 05:36:26;;;;;;;13.50;6.75;;;6.60;1.00;;;;;;5043738;28;20243;-81
2022/10/10 05:38:53;;;;;;;13.80;5.57;;;6.60;1.00;;;;;;5042086;28;20244;-79
2022/10/10 05:41:20;;;;;;;11.75;5.57;;;6.60;1.00;;;;;;5033269;28;20220;-82
2022/10/10 05:43:47;;;;;;;17.85;6.05;;;6.60;1.00;;;;;;5039645;28;20716;-81
2022/10/10 05:46:14;;;;;;;15.60;5.65;;;6.60;1.00;;;;;;5035424;28;20248;-78
2022/10/10 05:48:42;;;;;;;12.55;5.40;;;6.60;1.00;;;;;;5029801;28;21073;-79
2022/10/10 05:51:12;;;;;;;19.65;6.57;;;6.60;1.00;;;;;;5044014;28;20903;-80
2022/10/10 05:53:40;;;;;;;15.10;7.57;;;6.70;1.00;;;;;;5047876;28;20940;-81
2022/10/10 05:56:07;;;;;;;14.50;6.32;;;7.00;1.00;;;;;;5046201;28;20257;-85
2022/10/10 05:58:35;;;;;;;13.00;6.60;;;7.20;1.00;;;;;;5046007;28;20241;-80
2022/10/10 06:01:08;;;;;;;15.77;5.40;;;7.20;1.00;;;;;;5049762;28;20221;-79
2022/10/10 06:03:35;;;;;;;12.65;6.05;;;7.10;1.00;;;;;;5042784;28;20807;-80
2022/10/10 06:06:05;;;;;;;16.02;6.80;;;7.10;1.00;;;;;;5043248;28;20252;-82
2022/10/10 06:08:34;;;;;;;13.63;5.88;;;7.20;1.00;;;;;;5039230;28;20240;-81
2022/10/10 06:11:06;;;;;;;12.63;5.65;;;7.30;1.00;;;;;;5042365;28;20234;-80
2022/10/10 06:13:34;;;;;;;16.55;6.70;;;7.30;1.00;;;;;;5030939;28;20244;-80
2022/10/10 06:16:02;;;;;;;15.43;7.22;;;7.30;1.00;;;;;;5048840;28;20332;-79
2022/10/10 06:18:30;;;;;;;11.50;6.10;;;7.40;1.00;;;;;;5042617;28;20408;-81
2022/10/10 06:21:04;;;;;;;13.00;6.05;;;7.40;1.00;;;;;;5048647;28;20268;-83
2022/10/10 06:23:36;;;;;;;19.02;7.18;;;7.40;1.00;;;;;;5027348;28;20243;-80
2022/10/10 06:26:05;;;;;;;14.73;5.85;;;7.50;1.00;;;;;;5044746;28;20244;-80
2022/10/10 06:28:34;;;;;;;10.63;5.60;;;7.60;1.00;;;;;;5041412;28;20712;-81
2022/10/10 06:31:02;;;;;;;12.05;5.30;;;7.60;1.00;;;;;;5049015;28;20241;-80
2022/10/10 06:33:29;;;;;;;15.07;5.90;;;7.60;1.00;;;;;;5047628;28;20240;-81
2022/10/10 06:35:56;;;;;;;11.45;6.03;;;7.60;1.00;;;;;;5044061;28;20336;-83
2022/10/10 06:38:23;;;;;;;12.68;5.93;;;7.50;1.00;;;;;;5040617;28;20325;-82
2022/10/10 06:41:04;;;;;;;11.35;5.13;;;7.50;1.00;;;;;;5051194;28;20292;-81
2022/10/10 06:43:36;;;;;;;12.02;5.22;;;7.50;1.00;;;;;;5043276;28;20236;-81
2022/10/10 06:46:14;;;;;;;12.00;5.60;;;7.50;1.00;;;;;;5046537;28;20244;-79
2022/10/10 06:48:41;;;;;;;16.83;5.63;;;7.50;1.00;;;;;;5044904;28;21071;-80
2022/10/10 06:51:13;;;;;;;12.32;5.43;;;7.60;1.00;;;;;;5047888;28;20324;-79
2022/10/10 06:53:46;;;;;;;11.40;5.40;;;7.70;1.00;;;;;;5036845;28;20287;-80
2022/10/10 06:56:30;;;;;;;;;;;;;;;;;;;;;
2022/10/10 06:59:05;;;;;;;13.00;6.35;;;7.80;1.00;;;;;;5001711;28;50307;-85
2022/10/10 07:01:34;;;;;;;16.48;6.60;;;7.90;1.00;;;;;;5013830;28;20243;-81
2022/10/10 07:04:25;;;;;;;14.43;6.05;;;8.00;1.00;;;;;;5043734;28;20247;-83
2022/10/10 07:06:57;;;;;;;12.43;6.03;;;8.20;1.00;;;;;;5015190;28;20302;-83
2022/10/10 07:09:27;;;;;;;16.52;6.15;;;8.30;1.00;;;;;;5043729;28;20239;-84
2022/10/10 07:11:57;;;;;;;12.18;6.03;;;8.40;1.00;;;;;;5020139;28;20295;-83
2022/10/10 07:14:27;;;;;;;13.60;5.95;;;8.50;1.00;;;;;;5030977;28;20245;-84
2022/10/10 07:16:55;;;;;;;14.52;5.70;;;8.70;1.00;;;;;;5023469;28;20423;-84
2022/10/10 07:19:33;;;;;;;12.38;5.28;;;8.80;1.00;;;;;;5030341;28;20348;-84
2022/10/10 07:22:06;;;;;;;11.47;4.90;;;8.90;1.00;;;;;;4997166;28;21056;-83
2022/10/10 07:24:35;;;;;;;12.18;5.10;;;9.00;1.00;;;;;;5000126;28;20469;-83
2022/10/10 07:27:05;;;;;;;10.43;4.80;;;9.10;1.00;;;;;;4996428;28;20710;-82
2022/10/10 07:29:42;;;;;;;12.48;5.50;;;9.30;1.00;;;;;;5023665;28;20399;-83
2022/10/10 07:32:14;;;;;;;11.17;4.67;;;9.50;1.00;;;;;;5037260;28;20234;-82
2022/10/10 07:34:57;;;;;;;10.00;4.50;;;9.70;1.00;;;;;;5029664;28;20479;-82
2022/10/10 07:37:24;;;;;;;12.03;5.20;;;9.80;1.00;;;;;;5046027;28;20470;-83
2022/10/10 07:39:52;;;;;;;13.37;4.83;;;9.90;1.00;;;;;;5041441;28;20477;-83
2022/10/10 07:42:19;;;;;;;15.80;5.10;;;10.00;1.00;;;;;;5037051;28;20426;-83
2022/10/10 07:44:47;;;;;;;10.30;4.43;;;10.00;1.00;;;;;;5041326;28;20495;-83
2022/10/10 07:47:17;;;;;;;10.30;4.37;;;10.00;1.00;;;;;;5032764;28;20476;-83
2022/10/10 07:49:43;;;;;;;12.40;5.23;;;10.10;1.00;;;;;;5034246;28;20488;-84
2022/10/10 07:52:25;;;;;;;12.30;5.60;;;10.20;1.00;;;;;;5029406;28;20979;-83
2022/10/10 07:54:54;;;;;;;11.50;5.17;;;10.30;1.00;;;;;;5015630;28;20465;-84
2022/10/10 07:57:27;;;;;;;10.60;4.67;;;10.50;1.00;;;;;;5020171;28;21802;-81
2022/10/10 07:59:56;;;;;;;9.00;4.00;;;10.60;1.00;;;;;;4990202;28;20534;-82
2022/10/10 08:02:24;;;;;;;11.30;4.43;;;10.70;1.00;;;;;;5029116;28;20545;-84
2022/10/10 08:04:55;;;;;;;9.87;4.40;;;10.90;1.00;;;;;;5003597;28;20501;-83
2022/10/10 08:07:24;;;;;;;12.10;4.30;;;11.10;1.00;;;;;;5042061;28;20452;-83
2022/10/10 08:09:54;;;;;;;9.10;4.53;;;11.00;1.00;;;;;;5028878;28;20728;-81
2022/10/10 08:12:24;;;;;;;11.00;4.70;;;11.10;1.00;;;;;;5016568;28;20468;-85
2022/10/10 08:15:15;;;;;;;8.67;4.60;;;11.20;1.00;;;;;;5003695;28;21048;-82
2022/10/10 08:17:44;;;;;;;10.57;4.47;;;11.40;1.00;;;;;;5034947;28;20416;-82
2022/10/10 08:20:14;;;;;;;9.50;4.40;;;11.50;1.00;;;;;;5030398;28;20417;-82
2022/10/10 08:22:44;;;;;;;9.80;3.77;;;11.60;1.00;;;;;;5020753;28;20455;-81
2022/10/10 08:25:15;;;;;;;9.27;3.90;;;11.50;1.00;;;;;;5035964;28;20498;-81
2022/10/10 08:27:45;;;;;;;9.40;4.60;;;11.60;1.00;;;;;;5016989;28;20425;-84
2022/10/10 08:30:24;;;;;;;9.07;3.90;;;11.80;1.00;;;;;;5042635;28;20495;-81
2022/10/10 08:35:44;;;;;;;9.13;4.00;;;13.20;1.00;;;;;;5026667;28;20487;-82
2022/10/10 08:38:13;;;;;;;11.03;3.80;;;14.10;1.00;;;;;;5035385;28;20464;-85
2022/10/10 08:40:46;;;;;;;9.53;4.50;;;15.20;1.00;;;;;;5040852;28;20427;-79
2022/10/10 08:43:31;;;;;;;8.83;4.03;;;15.90;1.00;;;;;;5052947;28;20454;-83
2022/10/10 08:46:14;;;;;;;8.00;3.50;;;16.90;1.00;;;;;;5039004;28;20464;-87
2022/10/10 08:48:45;;;;;;;7.70;3.90;;;18.30;1.00;;;;;;5017374;28;20888;-85
2022/10/10 08:51:26;;;;;;;9.60;3.60;;;18.50;1.00;;;;;;5035895;28;20452;-89
2022/10/10 08:54:05;;;;;;;7.47;3.47;;;19.20;1.00;;;;;;5034801;28;20457;-86
2022/10/10 08:56:36;;;;;;;6.73;3.80;;;19.70;1.00;;;;;;5023267;28;20479;-82
2022/10/10 08:59:15;;;;;;;8.27;4.23;;;20.90;1.00;;;;;;5021809;28;20465;-82
2022/10/10 09:01:46;;;;;;;10.33;4.10;;;21.90;1.00;;;;;;5026269;28;20584;-88
2022/10/10 09:07:36;;;;;;;7.83;3.90;;;22.50;1.00;;;;;;4967033;28;20555;-85
2022/10/10 09:10:23;;;;;;;5.93;3.80;;;22.80;1.00;;;;;;4950256;28;21000;-85
2022/10/10 09:13:03;;;;;;;6.67;4.50;;;22.70;1.00;;;;;;4983703;28;20434;-89
2022/10/10 09:15:52;;;;;;;7.03;3.93;;;22.60;1.00;;;;;;5000675;28;20458;-86
2022/10/10 09:19:03;;;;;;;7.90;4.30;;;22.60;1.00;;;;;;5042660;28;20413;-87
2022/10/10 09:22:25;;;;;;;5.80;4.03;;;22.80;1.00;;;;;;4947324;28;20445;-83
2022/10/10 09:25:05;;;;;;;6.90;3.67;;;22.50;1.00;;;;;;4863220;28;20462;-82
2022/10/10 09:31:25;;;;;;;7.43;3.57;;;20.90;1.00;;;;;;4875596;28;20611;-81
2022/10/10 09:36:59;;;;;;;4.40;3.00;;;19.60;1.00;;;;;;4927591;28;23159;-85
2022/10/10 09:40:06;;;;;;;7.10;3.10;;;18.60;1.00;;;;;;4921709;28;20528;-82
2022/10/10 09:43:03;;;;;;;4.73;3.10;;;17.60;1.00;;;;;;4861555;28;20568;-82
2022/10/10 09:46:13;;;;;;;7.70;3.70;;;17.00;1.00;;;;;;4938556;28;20437;-81
2022/10/10 09:48:42;;;;;;;7.07;3.30;;;16.50;1.00;;;;;;4939751;28;20624;-84
2022/10/10 09:51:14;;;;;;;5.93;3.30;;;16.20;1.00;;;;;;5008828;28;20776;-81
2022/10/10 09:53:44;;;;;;;6.70;3.40;;;16.20;1.00;;;;;;5019936;28;20525;-82
2022/10/10 09:56:17;;;;;;;6.97;3.40;;;16.20;1.00;;;;;;5014824;28;20999;-87
2022/10/10 09:58:46;;;;;;;6.93;3.10;;;16.40;1.00;;;;;;5017941;28;20588;-83
2022/10/10 10:01:18;;;;;;;7.50;3.00;;;17.00;1.00;;;;;;5019142;28;20466;-80
2022/10/10 10:04:06;;;;;;;5.03;2.80;;;17.50;1.00;;;;;;5015874;28;20925;-81
2022/10/10 10:06:34;;;;;;;5.43;2.77;;;17.70;1.00;;;;;;5015478;28;20552;-77
2022/10/10 10:09:01;;;;;;;6.30;3.20;;;17.40;1.00;;;;;;5020154;28;20599;-81
2022/10/10 10:11:32;;;;;;;8.07;3.57;;;17.10;1.00;;;;;;5018781;28;20887;-79
2022/10/10 10:14:01;;;;;;;6.67;3.70;;;17.00;1.00;;;;;;5016693;28;20462;-79
2022/10/10 10:16:37;;;;;;;5.67;3.90;;;16.70;1.00;;;;;;5005460;28;20470;-79
2022/10/10 10:19:06;;;;;;;6.60;3.23;;;16.80;1.00;;;;;;5015399;28;20472;-79
2022/10/10 10:21:48;;;;;;;8.13;3.70;;;17.10;1.00;;;;;;5018168;28;20950;-79
2022/10/10 10:24:23;;;;;;;6.43;3.50;;;17.40;1.00;;;;;;5015334;28;20482;-80
2022/10/10 10:26:53;;;;;;;5.37;3.23;;;17.50;1.00;;;;;;5003223;28;20457;-82
2022/10/10 10:29:29;;;;;;;7.70;3.77;;;17.50;1.00;;;;;;5019074;28;20472;-78
2022/10/10 10:32:02;;;;;;;6.03;3.30;;;17.40;1.00;;;;;;5036326;28;20551;-78
2022/10/10 10:34:45;;;;;;;6.00;3.37;;;17.30;1.00;;;;;;5033134;28;20491;-79
2022/10/10 10:37:20;;;;;;;6.73;3.47;;;17.40;1.00;;;;;;5039014;28;20532;-78
2022/10/10 10:40:05;;;;;;;6.27;3.37;;;17.30;1.00;;;;;;5032454;28;20519;-78
2022/10/10 10:42:44;;;;;;;6.90;3.77;;;17.60;1.00;;;;;;5039090;28;21253;-81
2022/10/10 10:45:16;;;;;;;8.37;4.30;;;18.50;1.00;;;;;;5034664;28;20472;-80
2022/10/10 10:47:53;;;;;;;6.63;3.30;;;19.10;1.00;;;;;;5026167;28;20465;-79
2022/10/10 10:50:34;;;;;;;7.70;3.30;;;19.70;1.00;;;;;;5033739;28;20870;-80
2022/10/10 10:53:15;;;;;;;5.30;3.60;;;19.40;1.00;;;;;;5038795;28;20448;-82
2022/10/10 10:55:48;;;;;;;9.40;8.47;;;19.30;1.00;;;;;;5037640;28;20469;-78
2022/10/10 10:58:42;;;;;;;5.70;3.53;;;18.80;1.00;;;;;;5039294;28;20453;-80
2022/10/10 11:01:16;;;;;;;5.87;3.20;;;18.90;1.00;;;;;;5033178;28;20430;-80
2022/10/10 11:03:51;;;;;;;6.80;3.70;;;18.80;1.00;;;;;;5037664;28;20457;-79
2022/10/10 11:06:34;;;;;;;6.57;3.97;;;19.00;1.00;;;;;;5039012;28;20545;-82
2022/10/10 11:09:12;;;;;;;5.83;3.70;;;19.90;1.00;;;;;;5037047;28;20967;-81
2022/10/10 11:12:02;;;;;;;5.00;3.37;;;22.00;1.00;;;;;;5036475;28;20552;-81
2022/10/10 11:14:42;;;;;;;8.90;3.77;;;24.90;1.00;;;;;;5038165;28;20481;-82
2022/10/10 11:17:14;;;;;;;4.10;2.77;;;27.20;1.00;;;;;;5040420;28;20528;-82
2022/10/10 11:19:47;;;;;;;4.40;3.13;;;28.70;1.00;;;;;;5026520;28;20459;-81
2022/10/10 11:22:19;;;;;;;5.13;2.97;;;29.90;1.00;;;;;;5039706;28;21000;-83
2022/10/10 11:24:53;;;;;;;4.93;3.50;;;29.30;1.00;;;;;;5037770;28;20461;-81
2022/10/10 11:27:24;;;;;;;4.60;2.77;;;29.40;1.00;;;;;;5038973;28;20490;-82
2022/10/10 11:30:16;;;;;;;7.30;3.70;;;29.80;1.00;;;;;;5038132;28;20461;-83
2022/10/10 11:32:50;;;;;;;5.37;3.30;;;29.20;1.00;;;;;;5034524;28;20456;-81
2022/10/10 11:35:39;;;;;;;4.77;3.40;;;29.20;1.00;;;;;;5041132;28;20460;-81
2022/10/10 11:38:14;;;;;;;3.87;2.90;;;28.70;1.00;;;;;;5040890;28;20910;-81
2022/10/10 11:40:52;;;;;;;5.60;3.00;;;26.40;1.00;;;;;;5030719;28;20467;-83
2022/10/10 11:43:28;;;;;;;5.60;3.70;;;25.10;1.00;;;;;;5042109;28;20552;-81
2022/10/10 11:46:03;;;;;;;5.20;3.43;;;24.90;1.00;;;;;;5041359;28;20594;-81
2022/10/10 11:48:39;;;;;;;5.00;3.67;;;24.00;1.00;;;;;;5038735;28;20467;-79
2022/10/10 11:51:16;;;;;;;6.80;3.63;;;24.70;1.00;;;;;;5038812;28;20448;-79
2022/10/10 11:53:45;;;;;;;5.10;3.17;;;24.90;1.00;;;;;;5040505;28;20475;-82
2022/10/10 11:56:19;;;;;;;7.30;3.70;;;26.10;1.00;;;;;;5042883;28;20427;-80
2022/10/10 11:58:52;;;;;;;5.37;3.33;;;27.70;1.00;;;;;;5037389;28;21477;-82
2022/10/10 12:01:25;;;;;;;4.47;3.37;;;28.80;1.00;;;;;;5038877;28;20448;-82
2022/10/10 12:03:52;;;;;;;4.80;3.50;;;29.20;1.00;;;;;;5037112;28;20849;-82
2022/10/10 12:06:25;;;;;;;5.07;3.47;;;30.00;1.00;;;;;;5035862;28;20428;-83
2022/10/10 12:08:59;;;;;;;4.80;3.07;;;29.80;1.00;;;;;;5041624;28;20488;-82
2022/10/10 12:11:32;;;;;;;3.23;2.70;;;29.20;1.00;;;;;;5038986;28;20460;-81
2022/10/10 12:14:05;;;;;;;5.43;4.23;;;28.20;1.00;;;;;;5041399;28;21581;-81
2022/10/10 12:16:35;;;;;;;4.37;3.10;;;27.70;1.00;;;;;;5044897;28;20465;-81
2022/10/10 12:19:05;;;;;;;5.27;3.23;;;26.60;1.00;;;;;;5032614;28;20872;-82
2022/10/10 12:21:59;;;;;;;5.57;3.50;;;24.90;1.00;;;;;;5040435;28;20520;-81
2022/10/10 12:24:30;;;;;;;7.33;4.10;;;23.90;1.00;;;;;;5041030;28;20457;-82
2022/10/10 12:27:28;;;;;;;6.77;4.17;;;23.20;1.00;;;;;;5038532;28;20486;-79
2022/10/10 12:30:23;;;;;;;4.20;2.80;;;22.80;1.00;;;;;;5041873;28;20468;-80
2022/10/10 12:32:56;;;;;;;7.50;4.50;;;22.90;1.00;;;;;;5040492;28;20446;-80
2022/10/10 12:35:30;;;;;;;6.50;3.70;;;22.50;1.00;;;;;;5031388;28;20508;-78
2022/10/10 12:38:27;;;;;;;6.10;3.20;;;21.80;1.00;;;;;;5041230;28;20958;-79
2022/10/10 12:41:10;;;;;;;9.70;5.60;;;21.60;1.00;;;;;;5041206;28;20460;-80
2022/10/10 12:43:42;;;;;;;7.80;4.40;;;22.00;1.00;;;;;;5040979;28;20453;-79
2022/10/10 12:46:27;;;;;;;6.23;3.90;;;22.20;1.00;;;;;;5038813;28;20484;-80
2022/10/10 12:49:12;;;;;;;5.00;3.43;;;21.90;1.00;;;;;;5042574;28;20425;-80
2022/10/10 12:51:41;;;;;;;10.63;4.90;;;21.40;1.00;;;;;;5042563;28;20465;-82
2022/10/10 12:54:20;;;;;;;9.37;3.83;;;21.10;1.00;;;;;;5042965;28;20462;-80
2022/10/10 12:56:47;;;;;;;11.27;4.30;;;21.20;1.00;;;;;;5042466;28;20456;-80
2022/10/10 12:59:24;;;;;;;7.57;3.77;;;21.30;1.00;;;;;;5039407;28;20424;-79
2022/10/10 13:01:56;;;;;;;9.40;4.00;;;21.70;1.00;;;;;;5035170;28;20473;-81
2022/10/10 13:04:24;;;;;;;5.30;3.87;;;21.70;1.00;;;;;;5039014;28;20860;-82
2022/10/10 13:06:54;;;;;;;6.63;4.13;;;21.50;1.00;;;;;;5021883;28;20543;-80
2022/10/10 13:09:26;;;;;;;6.17;3.97;;;21.80;1.00;;;;;;5036208;28;22026;-79
2022/10/10 13:11:56;;;;;;;9.03;3.93;;;21.90;1.00;;;;;;5035212;28;20467;-82
2022/10/10 13:14:27;;;;;;;5.10;3.40;;;22.70;1.00;;;;;;5039162;28;20469;-80
2022/10/10 13:16:54;;;;;;;7.63;4.07;;;23.00;1.00;;;;;;5040869;28;20457;-83
2022/10/10 13:19:25;;;;;;;7.90;4.27;;;22.20;1.00;;;;;;5039725;28;20469;-80
2022/10/10 13:21:55;;;;;;;9.40;4.13;;;21.30;1.00;;;;;;5041533;28;20486;-81
2022/10/10 13:24:29;;;;;;;8.47;4.40;;;20.30;1.00;;;;;;5039971;28;20462;-82
2022/10/10 13:26:56;;;;;;;7.87;4.57;;;19.50;1.00;;;;;;5041114;28;20476;-81
2022/10/10 13:29:28;;;;;;;6.40;4.43;;;19.30;1.00;;;;;;5038315;28;20981;-79
2022/10/10 13:32:00;;;;;;;6.53;4.17;;;19.10;1.00;;;;;;5039488;28;20569;-80
2022/10/10 13:34:31;;;;;;;7.13;4.23;;;19.00;1.00;;;;;;5040336;28;20460;-82
2022/10/10 13:37:04;;;;;;;5.03;3.70;;;19.00;1.00;;;;;;5039304;28;20473;-82
2022/10/10 13:39:38;;;;;;;6.40;3.70;;;19.00;1.00;;;;;;5036223;28;21322;-81